Time;durP1;ratioP1;P1;durP2;ratioP2;P2;SDS_P1;SDS_P2;PMS_P1;PMS_P2;Temp;Humidity;BMP_temperature;BMP_pressure;BME280_temperature;BME280_humidity;BME280_pressure;Samples;Min_cycle;Max_cycle;Signal;HPM_P1;HPM_P2
2021/06/22 00:00:50;;;;;;;5.75;2.55;;;16.50;99.90;;;;;;2096303;28;20074;-68
2021/06/22 00:01:51;;;;;;;5.53;2.53;;;16.50;99.90;;;;;;2095530;28;20472;-68
2021/06/22 00:02:52;;;;;;;3.67;2.28;;;16.50;99.90;;;;;;2095946;28;20054;-68
2021/06/22 00:03:53;;;;;;;4.35;2.10;;;16.50;99.90;;;;;;2101858;28;20020;-68
2021/06/22 00:04:53;;;;;;;4.60;1.90;;;16.50;99.90;;;;;;2100800;28;20020;-68
2021/06/22 00:05:54;;;;;;;5.22;2.33;;;16.40;99.90;;;;;;2096164;28;20606;-68
2021/06/22 00:06:55;;;;;;;6.18;1.98;;;16.50;99.90;;;;;;2096038;28;20031;-68
2021/06/22 00:07:56;;;;;;;4.85;1.95;;;16.40;99.90;;;;;;2096236;28;20072;-68
2021/06/22 00:08:57;;;;;;;5.32;2.15;;;16.40;99.90;;;;;;2096536;28;20021;-68
2021/06/22 00:09:58;;;;;;;2.40;1.70;;;16.40;99.90;;;;;;2096123;28;20040;-68
2021/06/22 00:10:58;;;;;;;5.18;1.67;;;16.40;99.90;;;;;;2096166;28;20500;-68
2021/06/22 00:11:59;;;;;;;8.73;2.30;;;16.40;99.90;;;;;;2095489;28;20131;-67
2021/06/22 00:13:00;;;;;;;3.67;2.20;;;16.40;99.90;;;;;;2096173;28;20060;-68
2021/06/22 00:14:01;;;;;;;2.17;1.45;;;16.40;99.90;;;;;;2096481;28;20043;-68
2021/06/22 00:15:03;;;;;;;5.47;2.20;;;16.40;99.90;;;;;;2096283;28;20086;-68
2021/06/22 00:16:04;;;;;;;4.20;1.92;;;16.40;99.90;;;;;;2096139;28;20028;-68
2021/06/22 00:17:04;;;;;;;4.40;1.85;;;16.40;99.90;;;;;;2095966;28;20054;-68
2021/06/22 00:18:05;;;;;;;2.38;1.63;;;16.30;99.90;;;;;;2099768;28;20109;-68
2021/06/22 00:19:06;;;;;;;5.22;1.75;;;16.40;99.90;;;;;;2097759;28;20051;-68
2021/06/22 00:20:08;;;;;;;5.82;1.80;;;16.40;99.90;;;;;;2095609;28;20423;-68
2021/06/22 00:21:09;;;;;;;4.40;1.80;;;16.40;99.90;;;;;;2098269;28;20063;-68
2021/06/22 00:22:09;;;;;;;3.42;1.65;;;16.40;99.90;;;;;;2098860;28;20024;-68
2021/06/22 00:23:10;;;;;;;8.88;1.95;;;16.40;99.90;;;;;;2096254;28;20025;-68
2021/06/22 00:24:10;;;;;;;3.08;1.92;;;16.40;99.90;;;;;;2103517;28;20020;-68
2021/06/22 00:25:13;;;;;;;7.53;2.63;;;16.40;99.90;;;;;;2103982;28;20026;-68
2021/06/22 00:26:14;;;;;;;2.67;1.83;;;16.40;99.90;;;;;;2095946;28;20033;-68
2021/06/22 00:27:14;;;;;;;5.32;1.88;;;16.40;99.90;;;;;;2096485;28;20044;-68
2021/06/22 00:28:15;;;;;;;4.28;2.05;;;16.40;99.90;;;;;;2095784;28;20027;-68
2021/06/22 00:29:16;;;;;;;2.83;1.50;;;16.40;99.90;;;;;;2096376;28;20040;-68
2021/06/22 00:30:19;;;;;;;3.60;1.80;;;16.40;99.90;;;;;;2097276;28;20155;-68
2021/06/22 00:31:19;;;;;;;1.88;1.42;;;16.40;99.90;;;;;;2097748;28;20071;-68
2021/06/22 00:32:20;;;;;;;4.15;1.73;;;16.40;99.90;;;;;;2097536;28;20020;-68
2021/06/22 00:33:21;;;;;;;6.53;1.90;;;16.40;99.90;;;;;;2097618;28;20021;-68
2021/06/22 00:34:21;;;;;;;3.50;1.70;;;16.40;99.90;;;;;;2101840;28;20028;-68
2021/06/22 00:35:22;;;;;;;4.57;1.80;;;16.40;99.90;;;;;;2106112;28;20031;-68
2021/06/22 00:36:23;;;;;;;3.33;1.80;;;16.40;99.90;;;;;;2106234;28;20449;-68
2021/06/22 00:37:23;;;;;;;4.07;2.05;;;16.40;99.90;;;;;;2105905;28;20376;-68
2021/06/22 00:38:24;;;;;;;5.35;2.30;;;16.40;99.90;;;;;;2106569;28;20915;-68
2021/06/22 00:39:24;;;;;;;6.53;2.38;;;16.40;99.90;;;;;;2105913;28;20028;-68
2021/06/22 00:40:26;;;;;;;7.30;1.95;;;16.40;99.90;;;;;;2105659;28;20051;-68
2021/06/22 00:41:27;;;;;;;6.75;2.53;;;16.40;99.90;;;;;;2097254;28;20037;-68
2021/06/22 00:42:27;;;;;;;3.55;1.92;;;16.40;99.90;;;;;;2096871;28;20016;-68
2021/06/22 00:43:28;;;;;;;5.47;2.63;;;16.40;99.90;;;;;;2097229;28;20078;-68
2021/06/22 00:44:28;;;;;;;6.13;2.35;;;16.30;99.90;;;;;;2097926;28;20117;-68
2021/06/22 00:45:33;;;;;;;2.80;2.25;;;16.30;99.90;;;;;;2097537;28;20451;-68
2021/06/22 00:46:35;;;;;;;4.03;2.50;;;16.30;99.90;;;;;;2097973;28;20383;-68
2021/06/22 00:47:35;;;;;;;5.60;2.20;;;16.30;99.90;;;;;;2097564;28;20032;-68
2021/06/22 00:48:36;;;;;;;4.85;2.47;;;16.30;99.90;;;;;;2098650;28;20031;-68
2021/06/22 00:49:37;;;;;;;6.43;2.60;;;16.30;99.90;;;;;;2105893;28;20073;-68
2021/06/22 00:50:37;;;;;;;5.30;2.42;;;16.30;99.90;;;;;;2105882;28;20020;-68
2021/06/22 00:51:38;;;;;;;8.27;2.70;;;16.30;99.90;;;;;;2105412;28;20039;-68
2021/06/22 00:52:39;;;;;;;4.55;2.30;;;16.30;99.90;;;;;;2106106;28;20028;-68
2021/06/22 00:53:39;;;;;;;4.22;2.45;;;16.30;99.90;;;;;;2105932;28;20040;-68
2021/06/22 00:54:40;;;;;;;3.10;2.22;;;16.30;99.90;;;;;;2106379;28;20050;-68
2021/06/22 00:55:40;;;;;;;4.70;2.70;;;16.30;99.90;;;;;;2102113;28;20104;-68
2021/06/22 00:56:41;;;;;;;7.28;2.85;;;16.30;99.90;;;;;;2097473;28;20355;-68
2021/06/22 00:57:42;;;;;;;6.95;2.80;;;16.30;99.90;;;;;;2097591;28;20020;-68
2021/06/22 00:58:43;;;;;;;4.07;2.45;;;16.30;99.90;;;;;;2097639;28;20028;-68
2021/06/22 00:59:43;;;;;;;8.45;3.35;;;16.30;99.90;;;;;;2097969;28;20027;-68
2021/06/22 01:00:44;;;;;;;6.13;2.45;;;16.30;99.90;;;;;;2098090;28;20119;-68
2021/06/22 01:01:45;;;;;;;6.00;2.80;;;16.30;99.90;;;;;;2096863;28;20039;-68
2021/06/22 01:02:47;;;;;;;5.68;2.80;;;16.30;99.90;;;;;;2097586;28;20460;-68
2021/06/22 01:03:47;;;;;;;5.85;3.25;;;16.30;99.90;;;;;;2103910;28;20422;-68
2021/06/22 01:04:48;;;;;;;6.22;2.60;;;16.30;99.90;;;;;;2104536;28;20020;-68
2021/06/22 01:05:49;;;;;;;4.53;2.47;;;16.30;99.90;;;;;;2105253;28;20396;-68
2021/06/22 01:06:50;;;;;;;9.48;2.72;;;16.30;99.90;;;;;;2106210;28;20038;-68
2021/06/22 01:07:53;;;;;;;4.75;2.50;;;16.30;99.90;;;;;;2106050;28;20055;-68
2021/06/22 01:08:54;;;;;;;7.63;3.65;;;16.30;99.90;;;;;;2106148;28;20013;-68
2021/06/22 01:09:56;;;;;;;5.82;2.72;;;16.30;99.90;;;;;;2103305;28;20080;-68
2021/06/22 01:10:57;;;;;;;4.43;2.40;;;16.30;99.90;;;;;;2097440;28;20051;-68
2021/06/22 01:12:00;;;;;;;6.72;2.78;;;16.30;99.90;;;;;;2096069;28;20395;-67
2021/06/22 01:13:00;;;;;;;5.90;2.55;;;16.30;99.90;;;;;;2096772;28;20028;-68
2021/06/22 01:14:01;;;;;;;7.82;2.83;;;16.30;99.90;;;;;;2097506;28;20032;-68
2021/06/22 01:15:09;;;;;;;5.35;2.40;;;16.30;99.90;;;;;;2097587;28;20108;-68
2021/06/22 01:16:24;;;;;;;3.58;2.22;;;16.30;99.90;;;;;;2097733;28;20031;-68
2021/06/22 01:17:24;;;;;;;4.82;2.50;;;16.30;99.90;;;;;;2097084;28;20361;-68
2021/06/22 01:18:25;;;;;;;9.18;2.78;;;16.30;99.90;;;;;;2097639;28;20067;-68
2021/06/22 01:19:26;;;;;;;6.72;2.95;;;16.30;99.90;;;;;;2097411;28;20543;-68
2021/06/22 01:20:31;;;;;;;7.20;2.03;;;16.30;99.90;;;;;;2093256;28;20514;-68
2021/06/22 01:21:34;;;;;;;5.85;2.90;;;16.30;99.90;;;;;;2092960;28;20471;-68
2021/06/22 01:22:34;;;;;;;6.50;2.85;;;16.30;99.90;;;;;;2097180;28;20498;-68
2021/06/22 01:23:35;;;;;;;7.07;2.33;;;16.30;99.90;;;;;;2101746;28;20383;-68
2021/06/22 01:24:35;;;;;;;6.10;2.47;;;16.30;99.90;;;;;;2102212;28;20024;-68
2021/06/22 01:25:37;;;;;;;4.38;1.63;;;16.30;99.90;;;;;;2097574;28;20028;-68
2021/06/22 01:26:48;;;;;;;9.95;3.00;;;16.30;99.90;;;;;;2096960;28;20582;-68
2021/06/22 01:27:48;;;;;;;8.23;2.28;;;16.30;99.90;;;;;;2097395;28;20104;-68
2021/06/22 01:28:49;;;;;;;4.57;2.08;;;16.30;99.90;;;;;;2097364;28;20028;-68
2021/06/22 01:29:51;;;;;;;4.20;1.88;;;16.30;99.90;;;;;;2097329;28;20017;-68
2021/06/22 01:30:51;;;;;;;6.53;2.22;;;16.30;99.90;;;;;;2097251;28;20028;-68
2021/06/22 01:31:53;;;;;;;5.05;1.75;;;16.30;99.90;;;;;;2096641;28;20029;-68
2021/06/22 01:32:55;;;;;;;5.57;1.90;;;16.20;99.90;;;;;;2101760;28;20031;-68
2021/06/22 01:33:56;;;;;;;3.55;1.90;;;16.20;99.90;;;;;;2105908;28;20375;-68
2021/06/22 01:34:57;;;;;;;3.17;2.00;;;16.20;99.90;;;;;;2105293;28;20019;-68
2021/06/22 01:35:57;;;;;;;5.97;2.20;;;16.20;99.90;;;;;;2105948;28;20028;-68
2021/06/22 01:36:59;;;;;;;4.78;2.45;;;16.20;99.90;;;;;;2105368;28;20059;-68
2021/06/22 01:38:03;;;;;;;7.35;2.50;;;16.20;99.90;;;;;;2097772;28;20044;-68
2021/06/22 01:39:06;;;;;;;4.43;2.30;;;16.20;99.90;;;;;;2097222;28;20035;-68
2021/06/22 01:40:07;;;;;;;6.72;2.08;;;16.20;99.90;;;;;;2097347;28;20070;-68
2021/06/22 01:41:08;;;;;;;4.32;2.20;;;16.10;99.90;;;;;;2096856;28;20039;-68
2021/06/22 01:42:09;;;;;;;2.17;1.83;;;16.10;99.90;;;;;;2096601;28;20559;-68
2021/06/22 01:43:10;;;;;;;4.15;1.98;;;16.10;99.90;;;;;;2097516;28;20025;-68
2021/06/22 01:44:10;;;;;;;3.22;1.95;;;16.10;99.90;;;;;;2097519;28;20021;-68
2021/06/22 01:45:12;;;;;;;5.95;1.98;;;16.10;99.90;;;;;;2097210;28;20103;-68
2021/06/22 01:46:13;;;;;;;6.72;2.80;;;16.10;99.90;;;;;;2096586;28;20036;-68
2021/06/22 01:47:14;;;;;;;5.18;2.05;;;16.10;99.90;;;;;;2100016;28;20024;-68
2021/06/22 01:48:15;;;;;;;5.85;1.55;;;16.10;99.90;;;;;;2106025;28;20024;-68
2021/06/22 01:49:15;;;;;;;2.50;1.77;;;16.10;99.90;;;;;;2105488;28;20107;-68
2021/06/22 01:50:16;;;;;;;1.83;1.40;;;16.10;99.90;;;;;;2105624;28;20647;-67
2021/06/22 01:51:17;;;;;;;3.10;1.73;;;16.10;99.90;;;;;;2105569;28;20095;-68
2021/06/22 01:52:18;;;;;;;4.15;2.10;;;16.10;99.90;;;;;;2105135;28;20032;-68
2021/06/22 01:53:18;;;;;;;6.80;2.60;;;16.10;99.90;;;;;;2103170;28;20918;-68
2021/06/22 01:54:20;;;;;;;5.30;2.20;;;16.00;99.90;;;;;;2100958;28;20095;-68
2021/06/22 01:55:37;;;;;;;5.40;1.98;;;16.10;99.90;;;;;;2095814;28;20028;-68
2021/06/22 01:56:38;;;;;;;6.75;2.60;;;16.10;99.90;;;;;;2097354;28;20042;-68
2021/06/22 01:57:38;;;;;;;5.07;1.92;;;16.00;99.90;;;;;;2097031;28;20020;-68
2021/06/22 01:58:39;;;;;;;4.70;2.10;;;16.00;99.90;;;;;;2097406;28;20119;-68
2021/06/22 01:59:41;;;;;;;5.65;2.60;;;16.10;99.90;;;;;;2097091;28;20349;-68
2021/06/22 02:00:44;;;;;;;5.18;2.00;;;16.10;99.90;;;;;;2103590;28;20385;-68
2021/06/22 02:01:45;;;;;;;3.67;1.70;;;16.10;99.90;;;;;;2098609;28;20028;-68
2021/06/22 02:02:45;;;;;;;6.40;2.28;;;16.00;99.90;;;;;;2106870;28;20017;-68
2021/06/22 02:03:47;;;;;;;4.38;2.58;;;16.10;99.90;;;;;;2106601;28;20024;-68
2021/06/22 02:04:47;;;;;;;4.80;2.67;;;16.10;99.90;;;;;;2106786;28;20422;-68
2021/06/22 02:05:48;;;;;;;6.65;2.40;;;16.10;99.90;;;;;;2106724;28;20120;-68
2021/06/22 02:06:49;;;;;;;4.75;2.45;;;16.10;99.90;;;;;;2106468;28;20016;-68
2021/06/22 02:07:50;;;;;;;6.05;2.25;;;16.10;99.90;;;;;;2106904;28;20027;-68
2021/06/22 02:08:50;;;;;;;10.32;2.88;;;16.10;99.90;;;;;;2106557;28;20031;-68
2021/06/22 02:09:51;;;;;;;5.78;2.60;;;16.10;99.90;;;;;;2104249;28;20395;-68
2021/06/22 02:10:51;;;;;;;8.50;2.67;;;16.10;99.90;;;;;;2098061;28;20017;-68
2021/06/22 02:11:52;;;;;;;8.13;3.35;;;16.00;99.90;;;;;;2097717;28;20380;-68
2021/06/22 02:12:52;;;;;;;9.00;2.90;;;16.10;99.90;;;;;;2098358;28;20052;-68
2021/06/22 02:13:53;;;;;;;3.90;2.45;;;16.10;99.90;;;;;;2098535;28;20119;-68
2021/06/22 02:14:53;;;;;;;8.45;3.15;;;16.00;99.90;;;;;;2098138;28;20452;-68
2021/06/22 02:15:54;;;;;;;8.82;3.67;;;16.00;99.90;;;;;;2098305;28;20035;-68
2021/06/22 02:16:55;;;;;;;9.35;3.38;;;16.00;99.90;;;;;;2098083;28;20029;-68
2021/06/22 02:17:55;;;;;;;9.07;2.90;;;16.00;99.90;;;;;;2098208;28;20029;-68
2021/06/22 02:18:57;;;;;;;7.80;3.00;;;16.00;99.90;;;;;;2098323;28;20096;-68
2021/06/22 02:19:58;;;;;;;8.82;2.92;;;16.00;99.90;;;;;;2098380;28;20520;-68
2021/06/22 02:21:00;;;;;;;7.38;2.97;;;16.00;99.90;;;;;;2097427;28;20371;-68
2021/06/22 02:22:00;;;;;;;7.15;2.83;;;16.00;99.90;;;;;;2096819;28;20059;-68
2021/06/22 02:23:01;;;;;;;6.75;3.33;;;16.00;99.90;;;;;;2098021;28;20098;-68
2021/06/22 02:24:01;;;;;;;7.75;3.20;;;16.00;99.90;;;;;;2098221;28;20021;-68
2021/06/22 02:25:04;;;;;;;9.35;3.47;;;16.00;99.90;;;;;;2097941;28;20033;-68
2021/06/22 02:26:06;;;;;;;12.02;3.67;;;16.00;99.90;;;;;;2098167;28;20082;-68
2021/06/22 02:27:06;;;;;;;10.30;3.95;;;16.00;99.90;;;;;;2098173;28;20475;-68
2021/06/22 02:28:18;;;;;;;5.25;3.38;;;16.00;99.90;;;;;;2098275;28;20502;-68
2021/06/22 02:29:18;;;;;;;10.07;3.70;;;16.00;99.90;;;;;;2090149;28;20055;-68
2021/06/22 02:30:20;;;;;;;6.25;2.75;;;15.90;99.90;;;;;;2092032;28;20112;-68
2021/06/22 02:31:21;;;;;;;5.82;3.15;;;15.90;99.90;;;;;;2097536;28;20380;-68
2021/06/22 02:32:22;;;;;;;11.50;3.30;;;15.90;99.90;;;;;;2097687;28;20029;-68
2021/06/22 02:33:23;;;;;;;9.82;2.88;;;15.90;99.90;;;;;;2097492;28;20111;-68
2021/06/22 02:34:24;;;;;;;9.68;3.63;;;15.90;99.90;;;;;;2095276;28;20020;-68
2021/06/22 02:35:25;;;;;;;9.30;3.05;;;15.90;99.90;;;;;;2098045;28;20057;-68
2021/06/22 02:36:27;;;;;;;10.30;3.92;;;15.90;99.90;;;;;;2095020;28;20055;-68
2021/06/22 02:37:27;;;;;;;11.90;3.25;;;15.90;99.90;;;;;;2092383;28;20024;-68
2021/06/22 02:38:28;;;;;;;8.77;3.38;;;15.90;99.90;;;;;;2098420;28;20024;-68
2021/06/22 02:39:28;;;;;;;8.10;3.00;;;15.90;99.90;;;;;;2097889;28;20107;-68
2021/06/22 02:40:29;;;;;;;11.52;3.92;;;15.80;99.90;;;;;;2098136;28;20032;-68
2021/06/22 02:41:29;;;;;;;10.25;3.40;;;15.90;99.90;;;;;;2097424;28;20031;-68
2021/06/22 02:42:30;;;;;;;7.03;2.97;;;15.80;99.90;;;;;;2097561;28;20012;-68
2021/06/22 02:43:31;;;;;;;6.63;2.97;;;15.80;99.90;;;;;;2097736;28;20473;-68
2021/06/22 02:44:32;;;;;;;10.05;3.30;;;15.80;99.90;;;;;;2105241;28;20491;-68
2021/06/22 02:45:34;;;;;;;7.68;3.17;;;15.80;99.90;;;;;;2106365;28;20020;-68
2021/06/22 02:46:34;;;;;;;9.45;3.28;;;15.80;99.90;;;;;;2106663;28;20039;-68
2021/06/22 02:47:35;;;;;;;10.10;3.22;;;15.70;99.90;;;;;;2106324;28;20531;-68
2021/06/22 02:48:36;;;;;;;7.80;3.33;;;15.70;99.90;;;;;;2106623;28;20065;-68
2021/06/22 02:49:36;;;;;;;9.57;3.65;;;15.70;99.90;;;;;;2106470;28;20020;-68
2021/06/22 02:50:40;;;;;;;14.90;4.22;;;15.70;99.90;;;;;;2102110;28;20020;-67
2021/06/22 02:51:41;;;;;;;14.30;3.33;;;15.70;99.90;;;;;;2095908;28;20037;-68
2021/06/22 02:52:42;;;;;;;11.30;4.10;;;15.70;99.90;;;;;;2097694;28;20032;-68
2021/06/22 02:53:43;;;;;;;9.68;3.70;;;15.70;99.90;;;;;;2098231;28;20025;-68
2021/06/22 02:54:44;;;;;;;8.75;3.20;;;15.60;99.90;;;;;;2098124;28;20028;-68
2021/06/22 02:55:44;;;;;;;10.43;3.22;;;15.70;99.90;;;;;;2097918;28;20067;-68
2021/06/22 02:56:45;;;;;;;7.53;3.45;;;15.70;99.90;;;;;;2097993;28;20029;-68
2021/06/22 02:57:49;;;;;;;9.02;3.30;;;15.70;99.90;;;;;;2097868;28;20074;-68
2021/06/22 02:58:49;;;;;;;10.93;3.72;;;15.70;99.90;;;;;;2102535;28;20053;-68
2021/06/22 02:59:50;;;;;;;9.23;3.20;;;15.70;99.90;;;;;;2106455;28;20046;-68
2021/06/22 03:00:50;;;;;;;7.25;3.63;;;15.70;99.90;;;;;;2106187;28;20078;-68
2021/06/22 03:01:51;;;;;;;12.05;3.67;;;15.60;99.90;;;;;;2105041;28;20059;-68
2021/06/22 03:02:52;;;;;;;9.00;4.28;;;15.60;99.90;;;;;;2105104;28;20028;-68
2021/06/22 03:03:53;;;;;;;6.70;3.75;;;15.60;99.90;;;;;;2105378;28;20069;-68
2021/06/22 03:04:53;;;;;;;6.43;3.50;;;15.60;99.90;;;;;;2105388;28;20020;-68
2021/06/22 03:05:54;;;;;;;11.75;4.80;;;15.60;99.90;;;;;;2105524;28;20047;-68
2021/06/22 03:06:55;;;;;;;8.73;3.90;;;15.60;99.90;;;;;;2104997;28;20111;-68
2021/06/22 03:07:56;;;;;;;12.75;3.70;;;15.60;99.90;;;;;;2099619;28;20033;-68
2021/06/22 03:08:57;;;;;;;10.70;3.75;;;15.60;99.90;;;;;;2097229;28;20029;-68
2021/06/22 03:09:57;;;;;;;9.55;3.47;;;15.50;99.90;;;;;;2096872;28;20035;-68
2021/06/22 03:10:58;;;;;;;6.50;2.80;;;15.50;99.90;;;;;;2096710;28;20107;-67
2021/06/22 03:11:59;;;;;;;10.52;3.40;;;15.50;99.90;;;;;;2095692;28;20040;-68
2021/06/22 03:12:59;;;;;;;9.70;3.70;;;15.50;99.90;;;;;;2096636;28;20583;-68
2021/06/22 03:14:00;;;;;;;8.10;3.40;;;15.50;99.90;;;;;;2105394;28;20897;-68
2021/06/22 03:15:01;;;;;;;8.35;3.25;;;15.50;99.90;;;;;;2104862;28;20058;-68
2021/06/22 03:16:01;;;;;;;13.20;4.20;;;15.60;99.90;;;;;;2105122;28;20482;-68
2021/06/22 03:17:02;;;;;;;8.20;3.20;;;15.60;99.90;;;;;;2104758;28;20028;-68
2021/06/22 03:18:03;;;;;;;8.40;3.88;;;15.60;99.90;;;;;;2104881;28;20028;-68
2021/06/22 03:19:03;;;;;;;6.65;2.95;;;15.50;99.90;;;;;;2104849;28;20055;-68
2021/06/22 03:20:06;;;;;;;8.02;3.58;;;15.50;99.90;;;;;;2103198;28;20107;-68
2021/06/22 03:21:07;;;;;;;9.50;3.35;;;15.50;99.90;;;;;;2095807;28;20025;-68
2021/06/22 03:22:07;;;;;;;11.73;3.80;;;15.50;99.90;;;;;;2099453;28;20033;-68
2021/06/22 03:23:08;;;;;;;17.02;4.35;;;15.50;99.90;;;;;;2101030;28;20494;-68
2021/06/22 03:24:10;;;;;;;6.88;3.22;;;15.50;99.90;;;;;;2105126;28;20032;-68
2021/06/22 03:25:11;;;;;;;11.57;3.63;;;15.50;99.90;;;;;;2097030;28;20024;-68
2021/06/22 03:26:13;;;;;;;8.70;3.03;;;15.50;99.90;;;;;;2099055;28;20032;-68
2021/06/22 03:27:13;;;;;;;7.88;3.58;;;15.50;99.90;;;;;;2103610;28;20372;-68
2021/06/22 03:28:14;;;;;;;11.98;4.22;;;15.50;99.90;;;;;;2096501;28;20028;-68
2021/06/22 03:29:15;;;;;;;9.27;3.42;;;15.50;99.90;;;;;;2096311;28;20364;-67
2021/06/22 03:30:16;;;;;;;10.30;3.55;;;15.50;99.90;;;;;;2096624;28;20434;-68
2021/06/22 03:31:17;;;;;;;9.80;3.38;;;15.50;99.90;;;;;;2096032;28;20021;-68
2021/06/22 03:32:19;;;;;;;8.98;3.80;;;15.50;99.90;;;;;;2096062;28;20036;-68
2021/06/22 03:33:20;;;;;;;9.63;3.17;;;15.50;99.90;;;;;;2096399;28;20025;-67
2021/06/22 03:34:20;;;;;;;10.88;3.30;;;15.50;99.90;;;;;;2096565;28;20030;-68
2021/06/22 03:35:21;;;;;;;8.23;3.80;;;15.50;99.90;;;;;;2096721;28;20055;-68
2021/06/22 03:36:21;;;;;;;8.73;4.00;;;15.50;99.90;;;;;;2096260;28;20098;-68
2021/06/22 03:37:22;;;;;;;6.60;3.65;;;15.50;99.90;;;;;;2096369;28;20119;-68
2021/06/22 03:38:23;;;;;;;9.77;4.25;;;15.60;99.90;;;;;;2096289;28;20044;-68
2021/06/22 03:39:23;;;;;;;9.05;4.07;;;15.50;99.90;;;;;;2096533;28;20028;-68
2021/06/22 03:40:24;;;;;;;11.23;3.90;;;15.50;99.90;;;;;;2095516;28;20098;-68
2021/06/22 03:41:25;;;;;;;7.45;3.30;;;15.50;99.90;;;;;;2095945;28;20097;-68
2021/06/22 03:42:25;;;;;;;8.90;3.65;;;15.50;99.90;;;;;;2098625;28;20044;-68
2021/06/22 03:43:26;;;;;;;10.65;4.03;;;15.50;99.90;;;;;;2104770;28;20028;-68
2021/06/22 03:44:26;;;;;;;13.43;3.83;;;15.40;99.90;;;;;;2104435;28;20067;-68
2021/06/22 03:45:28;;;;;;;6.35;3.60;;;15.40;99.90;;;;;;2105086;28;20103;-68
2021/06/22 03:46:28;;;;;;;10.45;4.25;;;15.40;99.90;;;;;;2104721;28;20441;-68
2021/06/22 03:47:29;;;;;;;9.38;4.43;;;15.30;99.90;;;;;;2104570;28;20024;-68
2021/06/22 03:48:29;;;;;;;10.55;4.00;;;15.40;99.90;;;;;;2104673;28;20059;-68
2021/06/22 03:49:30;;;;;;;11.48;4.28;;;15.30;99.90;;;;;;2104437;28;20365;-68
2021/06/22 03:50:31;;;;;;;7.05;4.85;;;15.30;99.90;;;;;;2104558;28;20024;-68
2021/06/22 03:51:31;;;;;;;13.38;4.40;;;15.30;99.90;;;;;;2104394;28;20130;-68
2021/06/22 03:52:32;;;;;;;13.25;4.43;;;15.30;99.90;;;;;;2104597;28;20109;-68
2021/06/22 03:53:32;;;;;;;13.25;4.35;;;15.30;99.90;;;;;;2104559;28;20027;-68
2021/06/22 03:54:33;;;;;;;16.10;4.65;;;15.30;99.90;;;;;;2100303;28;20024;-68
2021/06/22 03:55:34;;;;;;;12.00;4.22;;;15.20;99.90;;;;;;2096291;28;20032;-68
2021/06/22 03:56:34;;;;;;;7.45;3.95;;;15.30;99.90;;;;;;2096501;28;20028;-68
2021/06/22 03:57:35;;;;;;;11.02;4.28;;;15.20;99.90;;;;;;2096513;28;20020;-68
2021/06/22 03:58:35;;;;;;;9.80;4.13;;;15.20;99.90;;;;;;2095903;28;20025;-69
2021/06/22 03:59:36;;;;;;;13.32;5.25;;;15.30;99.90;;;;;;2096454;28;20107;-68
2021/06/22 04:00:36;;;;;;;10.55;4.38;;;15.20;99.90;;;;;;2096181;28;20357;-68
2021/06/22 04:01:37;;;;;;;11.63;4.60;;;15.30;99.90;;;;;;2095921;28;20036;-68
2021/06/22 04:02:37;;;;;;;9.55;4.35;;;15.30;99.90;;;;;;2096322;28;20021;-68
2021/06/22 04:03:38;;;;;;;11.20;4.72;;;15.20;99.90;;;;;;2096350;28;20016;-68
2021/06/22 04:04:38;;;;;;;8.50;4.30;;;15.20;99.90;;;;;;2096341;28;20058;-67
2021/06/22 04:05:39;;;;;;;10.98;5.30;;;15.20;99.90;;;;;;2096297;28;20043;-68
2021/06/22 04:06:40;;;;;;;11.57;4.40;;;15.20;99.90;;;;;;2096344;28;20024;-68
2021/06/22 04:07:40;;;;;;;16.95;5.57;;;15.20;99.90;;;;;;2096270;28;20464;-68
2021/06/22 04:08:41;;;;;;;9.80;4.65;;;15.20;99.90;;;;;;2095640;28;20036;-68
2021/06/22 04:09:42;;;;;;;10.95;4.38;;;15.20;99.90;;;;;;2096167;28;20024;-68
2021/06/22 04:10:42;;;;;;;14.88;5.60;;;15.30;99.90;;;;;;2096208;28;20040;-68
2021/06/22 04:11:43;;;;;;;11.32;4.63;;;15.30;99.90;;;;;;2095562;28;20108;-68
2021/06/22 04:12:44;;;;;;;9.57;4.72;;;15.30;99.90;;;;;;2096485;28;20024;-68
2021/06/22 04:13:44;;;;;;;9.23;4.40;;;15.30;99.90;;;;;;2095955;28;20032;-68
2021/06/22 04:14:45;;;;;;;9.15;5.28;;;15.30;99.90;;;;;;2096398;28;20099;-68
2021/06/22 04:15:45;;;;;;;11.68;5.05;;;15.30;99.90;;;;;;2095876;28;20020;-68
2021/06/22 04:16:46;;;;;;;11.43;4.97;;;15.30;99.90;;;;;;2096432;28;20032;-68
2021/06/22 04:17:47;;;;;;;12.48;5.10;;;15.30;99.90;;;;;;2095932;28;20035;-68
2021/06/22 04:18:47;;;;;;;13.38;4.63;;;15.30;99.90;;;;;;2096499;28;20055;-68
2021/06/22 04:19:48;;;;;;;7.38;4.22;;;15.30;99.90;;;;;;2096083;28;20395;-68
2021/06/22 04:20:49;;;;;;;10.70;4.35;;;15.30;99.90;;;;;;2097670;28;20020;-68
2021/06/22 04:21:49;;;;;;;8.07;4.60;;;15.30;99.90;;;;;;2096186;28;20031;-68
2021/06/22 04:22:50;;;;;;;14.48;5.50;;;15.40;99.90;;;;;;2097598;28;20020;-68
2021/06/22 04:23:50;;;;;;;11.23;5.28;;;15.40;99.90;;;;;;2099543;28;20375;-68
2021/06/22 04:24:51;;;;;;;11.82;5.03;;;15.30;99.90;;;;;;2100510;28;20024;-68
2021/06/22 04:25:51;;;;;;;9.45;4.70;;;15.40;99.90;;;;;;2098278;28;20024;-68
2021/06/22 04:26:52;;;;;;;11.70;4.80;;;15.30;99.90;;;;;;2096852;28;20357;-68
2021/06/22 04:27:53;;;;;;;12.02;5.18;;;15.40;99.90;;;;;;2098751;28;20020;-68
2021/06/22 04:28:54;;;;;;;15.65;5.20;;;15.30;99.90;;;;;;2100500;28;20023;-68
2021/06/22 04:29:55;;;;;;;11.20;5.53;;;15.40;99.90;;;;;;2098846;28;20036;-68
2021/06/22 04:30:56;;;;;;;9.20;4.65;;;15.30;99.90;;;;;;2099733;28;20021;-68
2021/06/22 04:31:56;;;;;;;10.90;5.00;;;15.30;99.90;;;;;;2096371;28;20037;-68
2021/06/22 04:32:57;;;;;;;9.13;4.97;;;15.30;99.90;;;;;;2094590;28;20226;-68
2021/06/22 04:33:58;;;;;;;12.98;5.75;;;15.40;99.90;;;;;;2096173;28;20113;-68
2021/06/22 04:34:58;;;;;;;10.07;4.50;;;15.30;99.90;;;;;;2089021;28;20079;-68
2021/06/22 04:35:59;;;;;;;10.10;5.10;;;15.30;99.90;;;;;;2095346;28;20060;-68
2021/06/22 04:37:00;;;;;;;7.18;4.53;;;15.30;99.90;;;;;;2100425;28;20032;-69
2021/06/22 04:38:02;;;;;;;15.10;6.15;;;15.30;99.90;;;;;;2099386;28;20399;-68
2021/06/22 04:39:02;;;;;;;12.82;5.38;;;15.30;99.90;;;;;;2088323;28;20033;-68
2021/06/22 04:40:04;;;;;;;11.27;5.30;;;15.30;99.90;;;;;;2089242;28;20051;-68
2021/06/22 04:41:04;;;;;;;8.05;4.90;;;15.40;99.90;;;;;;2088947;28;20451;-68
2021/06/22 04:42:05;;;;;;;10.00;5.00;;;15.40;99.90;;;;;;2090536;28;20029;-68
2021/06/22 04:43:07;;;;;;;11.38;5.25;;;15.40;99.90;;;;;;2090233;28;20471;-68
2021/06/22 04:44:08;;;;;;;11.48;5.68;;;15.40;99.90;;;;;;2091553;28;20052;-68
2021/06/22 04:45:09;;;;;;;13.27;5.32;;;15.40;99.90;;;;;;2090604;28;20029;-68
2021/06/22 04:46:10;;;;;;;11.68;5.22;;;15.50;99.90;;;;;;2091771;28;20020;-68
2021/06/22 04:47:10;;;;;;;11.32;4.90;;;15.40;99.90;;;;;;2089616;28;20017;-68
2021/06/22 04:48:11;;;;;;;11.30;5.15;;;15.40;99.90;;;;;;2089381;28;20021;-68
2021/06/22 04:49:12;;;;;;;10.18;4.88;;;15.50;99.90;;;;;;2093121;28;20028;-68
2021/06/22 04:50:12;;;;;;;8.43;4.53;;;15.50;99.90;;;;;;2090585;28;20028;-68
2021/06/22 04:51:13;;;;;;;8.15;4.40;;;15.50;99.90;;;;;;2094355;28;20024;-67
2021/06/22 04:52:14;;;;;;;10.77;5.50;;;15.50;99.90;;;;;;2094270;28;20576;-68
2021/06/22 04:53:14;;;;;;;11.75;5.68;;;15.50;99.90;;;;;;2089630;28;20490;-68
2021/06/22 04:54:16;;;;;;;18.35;5.18;;;15.50;99.90;;;;;;2090393;28;20025;-68
2021/06/22 04:55:21;;;;;;;13.60;5.68;;;15.60;99.90;;;;;;2088730;28;20438;-68
2021/06/22 04:56:23;;;;;;;12.00;5.18;;;15.60;99.90;;;;;;2088425;28;20029;-68
2021/06/22 04:57:24;;;;;;;11.48;4.35;;;15.60;99.90;;;;;;2089263;28;20110;-68
2021/06/22 04:58:25;;;;;;;10.55;5.60;;;15.60;99.90;;;;;;2091436;28;20047;-68
2021/06/22 04:59:26;;;;;;;11.85;5.18;;;15.60;99.90;;;;;;2098072;28;20111;-68
2021/06/22 05:00:27;;;;;;;14.13;5.28;;;15.60;99.90;;;;;;2098753;28;20096;-68
2021/06/22 05:01:28;;;;;;;14.57;5.68;;;15.60;99.90;;;;;;2101175;28;20028;-68
2021/06/22 05:02:28;;;;;;;15.27;5.75;;;15.60;99.90;;;;;;2095043;28;20502;-68
2021/06/22 05:03:31;;;;;;;11.95;5.55;;;15.60;99.90;;;;;;2100021;28;20656;-68
2021/06/22 05:04:34;;;;;;;12.70;5.05;;;15.60;99.90;;;;;;2096120;28;20016;-68
2021/06/22 05:05:34;;;;;;;13.73;5.05;;;15.60;99.90;;;;;;2098213;28;20028;-68
2021/06/22 05:06:35;;;;;;;10.27;5.18;;;15.60;99.90;;;;;;2100877;28;20526;-68
2021/06/22 05:07:35;;;;;;;7.32;4.50;;;15.60;99.90;;;;;;2098935;28;20017;-68
2021/06/22 05:08:36;;;;;;;9.30;4.88;;;15.60;99.90;;;;;;2099439;28;20044;-68
2021/06/22 05:09:37;;;;;;;10.40;4.95;;;15.60;99.90;;;;;;2100653;28;20048;-68
2021/06/22 05:10:37;;;;;;;12.45;4.97;;;15.60;99.90;;;;;;2099303;28;20074;-68
2021/06/22 05:11:38;;;;;;;10.40;4.72;;;15.60;99.90;;;;;;2098881;28;20028;-68
2021/06/22 05:12:42;;;;;;;9.23;4.60;;;15.60;99.90;;;;;;2099637;28;20464;-68
2021/06/22 05:13:44;;;;;;;10.65;4.90;;;15.60;99.90;;;;;;2098394;28;20024;-68
2021/06/22 05:14:46;;;;;;;10.65;5.05;;;15.60;99.90;;;;;;2098811;28;20108;-68
2021/06/22 05:15:47;;;;;;;10.88;5.07;;;15.60;99.90;;;;;;2099679;28;20062;-68
2021/06/22 05:16:49;;;;;;;10.68;5.35;;;15.60;99.90;;;;;;2102424;28;20081;-68